Time;durP1;ratioP1;P1;durP2;ratioP2;P2;SDS_P1;SDS_P2;PMS_P1;PMS_P2;Temp;Humidity;BMP_temperature;BMP_pressure;BME280_temperature;BME280_humidity;BME280_pressure;Samples;Min_cycle;Max_cycle;Signal;HPM_P1;HPM_P2
2023/04/06 00:00:14;;;;;;;12.47;6.37;;;;;;;0.43;77.26;101393.19;6076507;28;20796;-69
2023/04/06 00:03:09;;;;;;;14.05;6.50;;;;;;;0.54;76.49;101406.59;6076088;28;20076;-72
2023/04/06 00:06:05;;;;;;;11.23;5.40;;;;;;;0.50;76.95;101402.41;6075699;28;20045;-69
2023/04/06 00:09:00;;;;;;;12.98;5.75;;;;;;;0.60;77.27;101388.06;6076537;28;20030;-71
2023/04/06 00:11:56;;;;;;;12.47;6.07;;;;;;;0.71;76.21;101388.44;6096559;28;20049;-71
2023/04/06 00:14:51;;;;;;;13.90;6.15;;;;;;;0.69;77.17;101392.88;6075296;28;20488;-69
2023/04/06 00:17:46;;;;;;;14.07;6.20;;;;;;;0.54;76.58;101396.19;6075918;28;20505;-69
2023/04/06 00:20:42;;;;;;;10.50;5.40;;;;;;;0.40;77.32;101388.94;6076123;28;20041;-70
2023/04/06 00:23:37;;;;;;;12.57;6.13;;;;;;;0.50;78.20;101398.06;6075022;28;20037;-69
2023/04/06 00:26:32;;;;;;;15.33;6.00;;;;;;;0.50;77.68;101394.59;6076098;28;20041;-69
2023/04/06 00:29:27;;;;;;;14.60;6.93;;;;;;;0.48;78.34;101391.22;6076273;28;20474;-70
2023/04/06 00:32:23;;;;;;;14.80;5.80;;;;;;;0.69;78.44;101390.28;6075886;28;20029;-70
2023/04/06 00:35:18;;;;;;;12.83;5.40;;;;;;;0.72;76.96;101378.84;6075347;28;20032;-68
2023/04/06 00:38:14;;;;;;;14.37;6.37;;;;;;;0.44;77.11;101371.38;6075930;28;20394;-72
2023/04/06 00:41:10;;;;;;;10.90;5.10;;;;;;;0.53;78.56;101394.47;6076164;28;20033;-69
2023/04/06 00:44:05;;;;;;;10.25;5.03;;;;;;;0.37;78.32;101383.00;6075152;28;20045;-70
2023/04/06 00:47:01;;;;;;;11.73;5.37;;;;;;;0.47;78.98;101376.47;6076288;28;20037;-69
2023/04/06 00:49:56;;;;;;;12.43;5.47;;;;;;;0.33;78.60;101373.59;6075750;28;20319;-70
2023/04/06 00:52:51;;;;;;;11.45;5.38;;;;;;;0.15;78.54;101384.81;6079710;28;20037;-69
2023/04/06 00:55:47;;;;;;;14.35;6.47;;;;;;;0.19;79.26;101371.56;6074862;28;20075;-69
2023/04/06 00:58:42;;;;;;;13.13;5.60;;;;;;;0.15;80.21;101377.84;6075376;28;20164;-69
2023/04/06 01:01:37;;;;;;;12.33;5.53;;;;;;;0.22;80.35;101383.66;6075377;28;20033;-69
2023/04/06 01:04:33;;;;;;;12.00;4.70;;;;;;;0.02;80.42;101367.97;6074818;28;20045;-71
2023/04/06 01:07:28;;;;;;;12.10;5.78;;;;;;;0.23;80.08;101380.13;6074744;28;20446;-71
2023/04/06 01:10:25;;;;;;;11.80;5.50;;;;;;;0.21;80.09;101368.91;6074916;28;20051;-71
2023/04/06 01:13:20;;;;;;;19.23;6.85;;;;;;;-0.07;80.15;101357.00;6073874;28;20193;-69
2023/04/06 01:16:15;;;;;;;11.87;5.03;;;;;;;-0.07;80.73;101357.00;6075141;28;20034;-69
2023/04/06 01:19:11;;;;;;;9.40;4.60;;;;;;;-0.16;81.17;101362.59;6088873;28;20071;-71
2023/04/06 01:22:07;;;;;;;11.88;5.50;;;;;;;-0.20;81.17;101350.63;6074563;28;20033;-71
2023/04/06 01:25:02;;;;;;;12.80;6.17;;;;;;;-0.06;81.99;101363.94;6073782;28;20036;-69
2023/04/06 01:27:57;;;;;;;10.30;4.90;;;;;;;-0.19;81.54;101352.28;6074463;28;20032;-69
2023/04/06 01:30:53;;;;;;;13.53;5.20;;;;;;;-0.04;81.79;101356.91;6074709;28;20120;-70
2023/04/06 01:33:48;;;;;;;10.90;4.87;;;;;;;-0.19;81.99;101352.28;6073577;28;20112;-69
2023/04/06 01:36:43;;;;;;;11.57;4.60;;;;;;;0.06;82.72;101344.31;6074108;28;20021;-71
2023/04/06 01:39:39;;;;;;;8.90;4.37;;;;;;;0.15;82.51;101353.50;6074350;28;20474;-71
2023/04/06 01:42:34;;;;;;;9.52;4.57;;;;;;;0.35;82.88;101348.31;6074023;28;20272;-69
2023/04/06 01:45:30;;;;;;;9.67;4.60;;;;;;;0.40;84.12;101343.75;6073635;28;20043;-71
2023/04/06 01:48:26;;;;;;;11.07;5.23;;;;;;;0.49;84.88;101325.09;6074061;28;20053;-70
2023/04/06 01:51:21;;;;;;;15.40;5.30;;;;;;;0.70;85.58;101344.16;6074008;28;20071;-70
2023/04/06 01:54:16;;;;;;;8.80;4.47;;;;;;;0.56;83.89;101336.94;6074167;28;20086;-70
2023/04/06 01:57:11;;;;;;;9.70;4.50;;;;;;;0.49;82.31;101338.13;6073734;28;20049;-70
2023/04/06 02:00:07;;;;;;;8.10;4.27;;;;;;;0.43;81.56;101325.34;6073739;28;20037;-71
2023/04/06 02:03:02;;;;;;;12.10;4.75;;;;;;;0.20;80.54;101336.75;6073564;28;20489;-69
2023/04/06 02:05:58;;;;;;;9.47;4.33;;;;;;;-0.07;80.79;101346.59;6072817;28;20080;-70
2023/04/06 02:08:53;;;;;;;9.47;4.33;;;;;;;0.09;82.95;101345.94;6073718;28;20030;-70
2023/04/06 02:11:48;;;;;;;13.80;4.60;;;;;;;-0.18;82.48;101347.94;6073473;28;20044;-70
2023/04/06 02:14:44;;;;;;;12.53;5.03;;;;;;;-0.47;83.29;101325.69;6073023;28;20021;-70
2023/04/06 02:17:39;;;;;;;10.27;5.43;;;;;;;-0.52;83.99;101347.59;6073448;28;20276;-70
2023/04/06 02:20:35;;;;;;;17.80;6.00;;;;;;;-0.80;84.07;101342.63;6073148;28;20033;-70
2023/04/06 02:23:30;;;;;;;12.80;5.33;;;;;;;-0.76;84.82;101354.63;6072490;28;20041;-70
2023/04/06 02:26:25;;;;;;;11.85;5.18;;;;;;;-0.67;84.88;101341.22;6073200;28;20095;-70
2023/04/06 02:29:21;;;;;;;9.70;4.53;;;;;;;-0.63;84.58;101328.06;6073266;28;20040;-70
2023/04/06 02:32:16;;;;;;;10.63;4.65;;;;;;;-0.77;84.88;101326.88;6082247;28;20029;-70
2023/04/06 02:35:11;;;;;;;11.77;4.07;;;;;;;-0.67;84.67;101333.41;6078219;28;20040;-69
2023/04/06 02:38:07;;;;;;;13.40;4.87;;;;;;;-0.61;85.15;101333.19;6073010;28;20040;-69
2023/04/06 02:41:02;;;;;;;12.57;4.03;;;;;;;-0.75;84.63;101325.91;6072790;28;20286;-70
2023/04/06 02:43:57;;;;;;;9.40;4.33;;;;;;;-0.71;84.58;101329.25;6072288;28;20021;-69
2023/04/06 02:46:53;;;;;;;9.37;4.53;;;;;;;-0.71;84.81;101337.06;6072943;28;20492;-69
2023/04/06 02:49:48;;;;;;;13.13;4.43;;;;;;;-0.74;84.73;101339.78;6072685;28;20065;-69
2023/04/06 02:52:43;;;;;;;12.23;4.53;;;;;;;-0.80;85.14;101337.41;6074200;28;20040;-69
2023/04/06 02:55:38;;;;;;;10.50;4.17;;;;;;;-0.83;85.14;101322.75;6072176;28;20033;-69
2023/04/06 02:58:34;;;;;;;8.33;4.27;;;;;;;-0.85;85.52;101318.53;6073032;28;20033;-69
2023/04/06 03:01:29;;;;;;;9.90;4.37;;;;;;;-0.77;85.51;101332.94;6073121;28;20095;-69
2023/04/06 03:04:25;;;;;;;12.40;5.03;;;;;;;-0.58;85.42;101338.28;6071734;28;20310;-69
2023/04/06 03:07:20;;;;;;;11.88;3.83;;;;;;;-0.74;84.70;101327.63;6072685;28;20037;-69
2023/04/06 03:10:16;;;;;;;8.37;3.57;;;;;;;-0.90;85.16;101313.50;6072471;28;20518;-69
2023/04/06 03:13:11;;;;;;;7.30;3.40;;;;;;;-0.84;85.67;101336.66;6072760;28;20399;-68
2023/04/06 03:16:06;;;;;;;14.10;5.00;;;;;;;-1.05;85.97;101318.41;6071746;28;20053;-68
2023/04/06 03:19:01;;;;;;;10.43;4.45;;;;;;;-1.02;86.07;101326.13;6072502;28;20021;-68
2023/04/06 03:21:57;;;;;;;10.63;4.10;;;;;;;-0.98;87.11;101332.91;6072476;28;20067;-68
2023/04/06 03:24:52;;;;;;;10.80;4.43;;;;;;;-1.07;86.91;101333.25;6071556;28;20033;-68
2023/04/06 03:27:47;;;;;;;8.83;4.50;;;;;;;-1.07;87.74;101331.50;6072412;28;20044;-68
2023/04/06 03:30:43;;;;;;;9.27;3.80;;;;;;;-1.21;87.35;101315.56;6071845;28;20021;-68
2023/04/06 03:33:38;;;;;;;9.57;3.90;;;;;;;-0.98;88.03;101322.50;6072754;28;20435;-68
2023/04/06 03:36:34;;;;;;;11.17;4.00;;;;;;;-1.02;87.56;101331.31;6072436;28;20045;-68
2023/04/06 03:39:29;;;;;;;8.88;3.75;;;;;;;-1.06;87.32;101329.75;6072320;28;20025;-69
2023/04/06 03:42:26;;;;;;;8.87;4.47;;;;;;;-0.98;86.89;101338.13;6073445;28;20041;-68
2023/04/06 03:45:21;;;;;;;11.77;4.40;;;;;;;-1.14;87.20;101321.38;6075808;28;20025;-68
2023/04/06 03:48:17;;;;;;;10.03;3.93;;;;;;;-1.10;87.54;101317.75;6076735;28;20041;-69
2023/04/06 03:51:12;;;;;;;9.53;4.07;;;;;;;-1.22;87.71;101316.44;6076718;28;20029;-68
2023/04/06 03:54:07;;;;;;;9.07;3.43;;;;;;;-1.18;87.49;101320.63;6075834;28;20036;-68
2023/04/06 03:57:03;;;;;;;12.00;4.17;;;;;;;-1.01;87.31;101328.66;6076747;28;20037;-68
2023/04/06 03:59:59;;;;;;;11.63;4.15;;;;;;;-1.14;87.08;101326.59;6076247;28;20083;-68
2023/04/06 04:02:54;;;;;;;13.63;4.57;;;;;;;-1.15;86.99;101330.09;6076686;28;20449;-68
2023/04/06 04:05:50;;;;;;;10.23;4.33;;;;;;;-1.20;86.95;101333.69;6075731;28;20371;-68
2023/04/06 04:08:46;;;;;;;10.50;4.40;;;;;;;-1.20;87.53;101341.50;6076082;28;20272;-68
2023/04/06 04:11:41;;;;;;;10.63;4.40;;;;;;;-1.24;86.86;101337.31;6076323;28;20072;-68
2023/04/06 04:14:36;;;;;;;12.77;4.57;;;;;;;-1.18;87.43;101348.41;6075482;28;20034;-69
2023/04/06 04:17:32;;;;;;;11.67;4.03;;;;;;;-1.11;86.70;101344.69;6058675;28;20045;-69
2023/04/06 04:20:28;;;;;;;10.30;3.58;;;;;;;-1.17;86.68;101332.75;6076070;28;20390;-69
2023/04/06 04:23:23;;;;;;;9.73;3.95;;;;;;;-1.22;86.72;101327.69;6075151;28;20524;-69
2023/04/06 04:26:18;;;;;;;10.07;3.67;;;;;;;-1.21;86.34;101326.81;6075987;28;20045;-70
2023/04/06 04:29:15;;;;;;;14.67;4.63;;;;;;;-1.22;86.73;101353.72;6078266;28;20036;-71
2023/04/06 04:32:10;;;;;;;10.57;4.25;;;;;;;-1.37;86.79;101333.47;6079993;28;20200;-69
2023/04/06 04:35:06;;;;;;;8.00;3.83;;;;;;;-1.25;86.68;101335.63;6075398;28;20092;-69
2023/04/06 04:38:01;;;;;;;12.38;3.67;;;;;;;-1.28;87.30;101327.91;6075476;28;20275;-69
2023/04/06 04:40:56;;;;;;;8.77;4.20;;;;;;;-1.20;86.33;101323.28;6075802;28;20044;-70
2023/04/06 04:43:51;;;;;;;11.60;4.57;;;;;;;-1.08;86.44;101340.19;6074505;28;20036;-69
2023/04/06 04:46:47;;;;;;;8.40;4.07;;;;;;;-1.25;85.78;101335.63;6075193;28;20394;-69
2023/04/06 04:49:42;;;;;;;10.67;3.93;;;;;;;-1.29;86.23;101341.84;6075453;28;20103;-71
2023/04/06 04:52:37;;;;;;;10.23;3.70;;;;;;;-1.39;86.60;101332.69;6085705;28;20112;-70
2023/04/06 04:55:33;;;;;;;9.95;4.53;;;;;;;-1.37;86.90;101322.22;6082358;28;20033;-71
2023/04/06 04:58:28;;;;;;;9.10;3.85;;;;;;;-1.41;86.75;101316.28;6075132;28;20037;-70
2023/04/06 05:01:24;;;;;;;8.90;4.10;;;;;;;-1.32;86.28;101335.91;6075368;28;20467;-70
2023/04/06 05:04:19;;;;;;;7.30;3.58;;;;;;;-1.37;86.64;101332.63;6074665;28;20072;-69
2023/04/06 05:07:15;;;;;;;10.15;4.50;;;;;;;-1.20;86.40;101349.28;6074426;28;20504;-69
2023/04/06 05:10:10;;;;;;;9.05;4.72;;;;;;;-1.36;86.10;101321.31;6078755;28;20160;-70
2023/04/06 05:13:05;;;;;;;10.17;4.17;;;;;;;-1.28;86.09;101322.72;6074711;28;20036;-69
2023/04/06 05:16:01;;;;;;;6.33;3.40;;;;;;;-1.21;86.06;101331.16;6074374;28;20115;-70
2023/04/06 05:18:56;;;;;;;9.57;3.78;;;;;;;-1.09;85.65;101328.13;6074996;28;20087;-69
2023/04/06 05:21:51;;;;;;;9.70;4.57;;;;;;;-1.02;84.56;101333.91;6074667;28;20037;-69
2023/04/06 05:24:47;;;;;;;14.53;5.30;;;;;;;-0.99;85.03;101334.66;6074548;28;20185;-68
2023/04/06 05:27:42;;;;;;;11.17;4.23;;;;;;;-0.95;84.37;101317.19;6074626;28;20033;-69
2023/04/06 05:30:37;;;;;;;11.23;4.83;;;;;;;-0.70;83.80;101342.19;6075702;28;20055;-69
2023/04/06 05:33:33;;;;;;;11.10;5.00;;;;;;;-0.31;83.00;101331.09;6073939;28;20033;-69
2023/04/06 05:36:28;;;;;;;7.83;4.03;;;;;;;0.25;79.94;101326.13;6074257;28;20030;-70
2023/04/06 05:39:23;;;;;;;11.20;4.20;;;;;;;0.59;77.66;101313.31;6074325;28;20033;-70
2023/04/06 05:42:18;;;;;;;10.00;4.60;;;;;;;0.57;76.84;101328.22;6075883;28;20474;-70
2023/04/06 05:45:16;;;;;;;10.67;4.70;;;;;;;0.68;75.78;101314.69;6073686;28;20036;-69
2023/04/06 05:48:11;;;;;;;10.60;5.20;;;;;;;0.75;75.63;101332.59;6074172;28;20037;-69
2023/04/06 05:51:07;;;;;;;9.13;4.37;;;;;;;0.78;75.11;101305.53;6073938;28;20043;-70
2023/04/06 05:54:02;;;;;;;9.97;5.50;;;;;;;0.85;74.52;101330.41;6073437;28;20398;-69
2023/04/06 05:56:57;;;;;;;12.70;4.93;;;;;;;0.94;74.57;101332.63;6073898;28;20045;-69
2023/04/06 05:59:52;;;;;;;5.97;3.27;;;;;;;1.22;73.81;101314.75;6073931;28;20279;-69
2023/04/06 06:02:48;;;;;;;9.63;4.47;;;;;;;1.40;72.65;101310.41;6073613;28;20374;-69
2023/04/06 06:05:43;;;;;;;9.00;4.40;;;;;;;1.32;72.41;101308.19;6072623;28;20029;-69
2023/04/06 06:08:38;;;;;;;8.20;3.90;;;;;;;1.44;71.99;101314.59;6073745;28;20039;-69
2023/04/06 06:11:34;;;;;;;8.33;4.37;;;;;;;1.55;72.70;101330.59;6073391;28;20490;-69
2023/04/06 06:14:29;;;;;;;8.90;4.28;;;;;;;1.60;72.67;101328.63;6073037;28;20088;-68
2023/04/06 06:17:24;;;;;;;9.75;4.88;;;;;;;1.50;72.39;101295.97;6073934;28;20033;-69
2023/04/06 06:20:20;;;;;;;9.60;5.10;;;;;;;1.89;71.23;101301.88;6073468;28;20087;-70
2023/04/06 06:23:15;;;;;;;9.80;4.63;;;;;;;2.08;70.84;101335.81;6073059;28;20040;-68
2023/04/06 06:26:10;;;;;;;6.47;4.10;;;;;;;2.19;70.06;101318.66;6073500;28;20505;-69
2023/04/06 06:29:06;;;;;;;10.25;4.32;;;;;;;2.22;69.84;101323.72;6073826;28;20044;-68
2023/04/06 06:32:02;;;;;;;13.15;5.22;;;;;;;2.12;69.87;101334.75;6074453;28;20034;-69
2023/04/06 06:34:57;;;;;;;8.80;4.87;;;;;;;2.31;68.92;101331.09;6072737;28;20048;-68
2023/04/06 06:37:52;;;;;;;6.50;3.97;;;;;;;2.57;68.17;101315.81;6073608;28;20493;-68
2023/04/06 06:40:47;;;;;;;9.07;5.00;;;;;;;2.21;68.51;101311.56;6073436;28;20079;-69
2023/04/06 06:43:43;;;;;;;9.23;4.90;;;;;;;2.34;69.16;101323.09;6072722;28;20026;-69
2023/04/06 06:46:38;;;;;;;7.93;4.80;;;;;;;2.55;67.63;101328.16;6073245;28;20079;-69
2023/04/06 06:49:33;;;;;;;8.27;4.80;;;;;;;2.96;66.98;101322.38;6073322;28;20272;-69
2023/04/06 06:52:29;;;;;;;7.20;4.57;;;;;;;3.13;67.08;101333.72;6073548;28;20629;-69
2023/04/06 06:55:26;;;;;;;11.43;5.00;;;;;;;3.18;66.53;101335.16;6072545;28;20274;-69
2023/04/06 06:58:21;;;;;;;9.85;5.35;;;;;;;3.25;65.29;101318.19;6073362;28;20389;-69
2023/04/06 07:01:17;;;;;;;9.60;5.60;;;;;;;3.15;66.49;101310.94;6073105;28;20040;-69
2023/04/06 07:04:12;;;;;;;10.90;5.00;;;;;;;3.47;65.68;101308.22;6072534;28;20033;-68
2023/04/06 07:07:08;;;;;;;9.27;5.07;;;;;;;3.70;65.60;101320.00;6073070;28;20038;-70
2023/04/06 07:10:04;;;;;;;9.18;5.93;;;;;;;3.48;65.54;101306.41;6073339;28;20034;-69
2023/04/06 07:13:00;;;;;;;8.05;4.68;;;;;;;3.76;64.58;101310.94;6089187;28;20070;-70
2023/04/06 07:15:55;;;;;;;13.95;5.80;;;;;;;3.93;64.60;101316.06;6073780;28;20033;-71
2023/04/06 07:18:50;;;;;;;8.63;4.53;;;;;;;3.93;64.00;101300.31;6076581;28;20052;-70
2023/04/06 07:21:46;;;;;;;9.50;5.75;;;;;;;4.05;62.82;101304.88;6077602;28;20038;-69
2023/04/06 07:24:41;;;;;;;10.63;5.17;;;;;;;4.21;62.27;101316.16;6076527;28;20030;-69
2023/04/06 07:27:36;;;;;;;10.27;4.57;;;;;;;4.44;61.64;101323.47;6077388;28;20037;-70
2023/04/06 07:30:31;;;;;;;9.70;5.33;;;;;;;4.67;61.81;101319.47;6078567;28;20517;-70
2023/04/06 07:33:29;;;;;;;11.70;4.27;;;;;;;4.65;61.20;101313.44;6076685;28;20037;-70
2023/04/06 07:36:25;;;;;;;8.95;4.80;;;;;;;4.71;60.35;101316.56;6077350;28;20053;-70
2023/04/06 07:39:20;;;;;;;8.77;4.88;;;;;;;4.88;61.29;101301.53;6077259;28;20151;-69
2023/04/06 07:42:15;;;;;;;10.33;4.37;;;;;;;5.09;60.02;101305.44;6077504;28;20039;-70
2023/04/06 07:45:11;;;;;;;9.17;4.57;;;;;;;5.42;59.00;101303.31;6076590;28;20037;-70
2023/04/06 07:48:06;;;;;;;8.77;5.03;;;;;;;5.34;57.27;101303.81;6077278;28;20040;-70
2023/04/06 07:51:02;;;;;;;9.60;4.80;;;;;;;5.69;57.59;101306.78;6077204;28;20496;-70
2023/04/06 07:53:58;;;;;;;7.00;4.50;;;;;;;5.72;56.55;101321.53;6076359;28;20025;-70
2023/04/06 07:56:53;;;;;;;10.40;3.95;;;;;;;5.83;56.03;101304.09;6076935;28;20029;-70
2023/04/06 07:59:49;;;;;;;8.13;4.27;;;;;;;6.07;54.49;101300.78;6076833;28;20039;-70
2023/04/06 08:02:44;;;;;;;7.53;4.30;;;;;;;6.44;54.00;101305.28;6077134;28;20025;-71
2023/04/06 08:05:40;;;;;;;10.77;5.03;;;;;;;6.24;54.11;101301.34;6076595;28;20033;-70
2023/04/06 08:08:35;;;;;;;7.38;4.25;;;;;;;6.40;54.31;101290.63;6075976;28;20041;-71
2023/04/06 08:11:30;;;;;;;8.17;4.77;;;;;;;6.71;54.16;101299.88;6076648;28;20033;-69
2023/04/06 08:14:25;;;;;;;7.90;4.13;;;;;;;6.97;53.35;101299.75;6075408;28;20029;-71
2023/04/06 08:17:21;;;;;;;7.33;3.87;;;;;;;7.11;52.47;101307.50;6076330;28;20103;-70
2023/04/06 08:20:16;;;;;;;7.28;4.30;;;;;;;6.86;51.44;101294.38;6076243;28;20045;-71
2023/04/06 08:23:12;;;;;;;8.05;3.80;;;;;;;7.04;52.14;101295.69;6075820;28;20021;-71
2023/04/06 08:26:07;;;;;;;14.43;4.43;;;;;;;6.92;52.28;101293.09;6075669;28;20040;-70
2023/04/06 08:29:03;;;;;;;11.20;4.83;;;;;;;7.27;52.82;101301.13;6075365;28;20033;-71
2023/04/06 08:31:59;;;;;;;9.93;3.78;;;;;;;7.36;51.40;101295.19;6075906;28;20038;-71
2023/04/06 08:34:55;;;;;;;9.45;4.72;;;;;;;7.18;51.47;101303.47;6075079;28;20402;-70
2023/04/06 08:37:50;;;;;;;10.23;4.55;;;;;;;7.30;52.09;101306.19;6075732;28;20441;-71
2023/04/06 08:40:47;;;;;;;9.30;4.50;;;;;;;7.40;51.04;101291.38;6075881;28;20433;-71
2023/04/06 08:43:53;;;;;;;7.30;3.92;;;;;;;7.55;49.97;101296.41;6074936;28;20074;-70
2023/04/06 08:46:48;;;;;;;10.40;4.60;;;;;;;7.92;50.32;101291.84;6076223;28;20045;-69
2023/04/06 08:49:44;;;;;;;7.57;4.53;;;;;;;8.44;48.74;101290.56;6075448;28;20037;-69
2023/04/06 08:52:40;;;;;;;9.85;4.38;;;;;;;8.45;48.92;101294.91;6091035;28;20043;-70
2023/04/06 08:55:36;;;;;;;9.20;4.53;;;;;;;8.49;47.12;101286.63;6075032;28;20045;-71
2023/04/06 08:58:37;;;;;;;6.45;3.53;;;;;;;8.22;47.35;101273.69;6090678;28;20176;-71
2023/04/06 09:01:33;;;;;;;;;;;;;;;8.54;47.29;101294.19;6075921;28;20061;-69
2023/04/06 09:04:28;;;;;;;8.00;4.03;;;;;;;8.31;46.82;101280.13;6074560;28;19921;-71
2023/04/06 09:07:23;;;;;;;10.87;4.13;;;;;;;8.68;46.68;101278.09;6075159;28;20037;-71
2023/04/06 09:10:20;;;;;;;6.73;3.80;;;;;;;9.05;47.14;101289.28;6082849;28;20029;-71
2023/04/06 09:13:15;;;;;;;8.77;4.35;;;;;;;8.75;46.37;101279.31;6074340;28;20033;-72
2023/04/06 09:16:11;;;;;;;9.13;4.40;;;;;;;9.02;46.24;101294.81;6074537;28;20044;-73
2023/04/06 09:19:06;;;;;;;8.73;4.60;;;;;;;9.14;46.45;101296.44;6074523;28;20509;-70
2023/04/06 09:22:07;;;;;;;9.63;4.40;;;;;;;9.73;45.04;101273.09;6074699;28;20036;-70
2023/04/06 09:25:02;;;;;;;9.18;4.10;;;;;;;9.52;43.60;101289.75;6073658;28;20341;-70
2023/04/06 09:28:00;;;;;;;9.25;4.57;;;;;;;9.54;44.53;101279.03;6074832;28;20470;-71
2023/04/06 09:30:55;;;;;;;10.38;4.40;;;;;;;9.85;44.33;101282.66;6075439;28;20390;-69
2023/04/06 09:33:51;;;;;;;6.87;4.10;;;;;;;10.19;42.00;101278.91;6094428;28;20044;-70
2023/04/06 09:36:47;;;;;;;7.88;3.70;;;;;;;9.86;41.63;101269.28;6074509;28;20507;-71
2023/04/06 09:39:42;;;;;;;9.67;3.97;;;;;;;9.83;41.94;101280.16;6073728;28;20055;-72
2023/04/06 09:42:37;;;;;;;9.43;3.70;;;;;;;10.02;41.61;101264.41;6074307;28;20025;-68
2023/04/06 09:45:33;;;;;;;7.87;4.03;;;;;;;9.81;42.19;101276.75;6055441;28;20296;-70
2023/04/06 09:48:30;;;;;;;10.07;4.20;;;;;;;9.80;41.72;101266.31;6088979;28;20030;-71
2023/04/06 09:51:27;;;;;;;9.80;4.90;;;;;;;9.96;42.24;101266.69;6074105;28;20116;-72
2023/04/06 09:54:25;;;;;;;7.70;4.43;;;;;;;10.01;40.94;101254.75;6073208;28;20026;-72
2023/04/06 09:57:26;;;;;;;9.65;4.65;;;;;;;9.92;40.98;101265.28;6089222;28;20068;-72
2023/04/06 10:00:22;;;;;;;7.60;4.10;;;;;;;10.24;41.46;101250.19;6056171;28;20041;-72
2023/04/06 10:03:38;;;;;;;29.45;13.50;;;;;;;10.19;41.52;101255.06;6073159;28;20029;-70
2023/04/06 10:06:35;;;;;;;9.68;4.32;;;;;;;10.55;41.36;101241.28;6073409;28;20087;-72
2023/04/06 10:09:35;;;;;;;7.93;4.32;;;;;;;10.75;40.84;101251.00;6088867;28;20103;-71
2023/04/06 10:12:31;;;;;;;;;;;;;;;10.45;41.52;101240.41;6074057;28;20037;-70
2023/04/06 10:15:30;;;;;;;10.33;4.80;;;;;;;10.64;40.48;101232.53;6072863;28;19916;-71
2023/04/06 10:18:25;;;;;;;8.88;4.32;;;;;;;10.51;40.78;101247.84;6073552;28;20028;-71
2023/04/06 10:21:24;;;;;;;10.57;4.47;;;;;;;10.85;39.97;101243.06;6055624;28;20037;-70
2023/04/06 10:24:20;;;;;;;13.55;5.20;;;;;;;11.35;40.33;101239.41;6072781;28;20045;-71
2023/04/06 10:27:15;;;;;;;9.67;5.07;;;;;;;11.23;38.98;101232.53;6073408;28;20485;-70
2023/04/06 10:30:10;;;;;;;11.43;4.77;;;;;;;11.12;39.45;101234.47;6055579;28;20280;-72
2023/04/06 10:33:13;;;;;;;8.48;4.15;;;;;;;10.93;38.21;101223.81;6073137;28;20030;-70
2023/04/06 10:36:11;;;;;;;8.43;4.50;;;;;;;11.35;37.90;101235.91;6072548;28;20099;-71
2023/04/06 10:39:07;;;;;;;9.43;4.80;;;;;;;10.80;38.15;101217.91;6073298;28;20116;-72
2023/04/06 10:42:06;;;;;;;8.17;4.33;;;;;;;11.01;39.38;101226.63;6073093;28;20086;-71
2023/04/06 10:45:07;;;;;;;9.70;4.85;;;;;;;11.48;38.54;101233.84;6072253;28;20288;-70
2023/04/06 10:48:16;;;;;;;8.65;4.18;;;;;;;11.56;37.53;101227.81;6072888;28;20057;-71
2023/04/06 10:51:16;;;;;;;9.38;5.20;;;;;;;11.77;36.73;101208.13;6072992;28;20041;-70
2023/04/06 10:54:12;;;;;;;8.50;4.93;;;;;;;11.47;37.10;101221.53;6072696;28;20045;-71
2023/04/06 10:57:07;;;;;;;8.80;4.90;;;;;;;11.53;36.74;101220.97;6055442;28;20276;-70
2023/04/06 11:00:05;;;;;;;10.10;5.23;;;;;;;11.96;37.13;101217.06;6073138;28;20465;-71
2023/04/06 11:03:01;;;;;;;7.97;4.00;;;;;;;12.17;36.93;101215.91;6072624;28;20025;-72
2023/04/06 11:05:56;;;;;;;9.55;5.03;;;;;;;12.37;35.92;101206.88;6072345;28;20061;-71
2023/04/06 11:08:53;;;;;;;8.70;3.80;;;;;;;12.61;36.27;101206.34;6072628;28;20036;-71
2023/04/06 11:11:48;;;;;;;11.00;5.45;;;;;;;11.94;35.77;101204.75;6073133;28;20097;-71
2023/04/06 11:14:53;;;;;;;8.33;4.70;;;;;;;11.91;36.35;101205.03;6072255;28;20036;-72
2023/04/06 11:17:49;;;;;;;9.07;5.50;;;;;;;11.72;36.96;101207.72;6072651;28;20111;-72
2023/04/06 11:20:48;;;;;;;10.23;4.95;;;;;;;11.84;36.70;101206.59;6072682;28;20029;-71
2023/04/06 11:23:43;;;;;;;10.57;5.10;;;;;;;11.51;36.52;101204.34;6071663;28;20390;-71
2023/04/06 11:26:50;;;;;;;9.30;4.70;;;;;;;12.02;37.34;101208.50;6072716;28;20033;-72
2023/04/06 11:29:46;;;;;;;10.77;5.25;;;;;;;11.69;36.74;101193.88;6072633;28;20030;-71
2023/04/06 11:32:43;;;;;;;9.77;4.40;;;;;;;12.10;37.23;101188.19;6054618;28;20064;-71
2023/04/06 11:35:38;;;;;;;15.65;8.95;;;;;;;12.63;36.37;101177.78;6071672;28;20037;-72
2023/04/06 11:38:33;;;;;;;14.00;7.23;;;;;;;12.82;35.47;101193.66;6072284;28;20041;-72
2023/04/06 11:41:30;;;;;;;12.23;5.80;;;;;;;12.13;36.03;101187.06;6072529;28;20068;-72
2023/04/06 11:44:42;;;;;;;9.13;5.13;;;;;;;12.00;35.74;101194.53;6071642;28;20368;-71
2023/04/06 11:47:37;;;;;;;8.20;4.10;;;;;;;12.14;36.00;101172.81;6072553;28;20036;-72
2023/04/06 11:50:34;;;;;;;9.05;5.18;;;;;;;12.68;35.45;101187.97;6089757;28;20025;-70
2023/04/06 11:53:29;;;;;;;10.88;4.90;;;;;;;12.37;34.47;101182.09;6080101;28;20108;-72
2023/04/06 11:56:26;;;;;;;9.90;5.45;;;;;;;12.64;35.44;101195.41;6072742;28;20052;-70
2023/04/06 11:59:22;;;;;;;10.45;4.85;;;;;;;12.71;33.58;101183.22;6072611;28;20272;-70
2023/04/06 12:02:18;;;;;;;8.85;4.63;;;;;;;12.63;34.67;101174.28;6072647;28;20037;-71
2023/04/06 12:05:13;;;;;;;9.27;4.90;;;;;;;12.83;35.09;101173.19;6075314;28;20079;-70
2023/04/06 12:08:08;;;;;;;7.87;4.50;;;;;;;12.75;35.63;101178.41;6076433;28;20037;-72
2023/04/06 12:11:04;;;;;;;8.37;4.83;;;;;;;12.52;35.29;101185.97;6088441;28;20044;-72
2023/04/06 12:14:01;;;;;;;12.90;5.93;;;;;;;12.96;35.11;101174.50;6075552;28;20390;-70
2023/04/06 12:16:57;;;;;;;14.93;5.95;;;;;;;12.98;35.28;101174.34;6076429;28;20036;-71
2023/04/06 12:19:53;;;;;;;10.13;4.68;;;;;;;12.54;34.00;101157.38;6076172;28;20056;-71
2023/04/06 12:22:48;;;;;;;8.33;4.13;;;;;;;12.91;34.17;101155.47;6076188;28;20033;-71
2023/04/06 12:25:43;;;;;;;9.53;4.77;;;;;;;12.52;33.83;101154.88;6075441;28;20034;-72
2023/04/06 12:28:38;;;;;;;10.40;4.80;;;;;;;12.60;34.42;101167.44;6075812;28;20043;-70
2023/04/06 12:31:35;;;;;;;9.87;4.53;;;;;;;12.68;33.86;101148.91;6076102;28;20544;-72
2023/04/06 12:34:30;;;;;;;7.78;4.28;;;;;;;13.52;32.97;101144.94;6075348;28;20021;-72
2023/04/06 12:37:26;;;;;;;10.37;5.07;;;;;;;13.67;33.50;101145.22;6076058;28;20505;-71
2023/04/06 12:40:22;;;;;;;9.77;4.82;;;;;;;13.10;34.06;101149.19;6075836;28;20402;-71
2023/04/06 12:43:17;;;;;;;7.47;4.50;;;;;;;13.41;34.32;101141.66;6075010;28;20092;-70
2023/04/06 12:46:12;;;;;;;8.83;4.23;;;;;;;13.97;33.32;101142.09;6075693;28;20033;-72
2023/04/06 12:49:07;;;;;;;7.60;4.87;;;;;;;13.67;33.73;101150.53;6081380;28;20332;-71
2023/04/06 12:52:03;;;;;;;10.93;5.20;;;;;;;13.62;33.06;101136.84;6075818;28;20064;-72
2023/04/06 12:55:00;;;;;;;8.13;4.78;;;;;;;13.49;33.71;101139.91;6074673;28;20029;-72
2023/04/06 12:57:55;;;;;;;7.65;5.00;;;;;;;13.81;33.25;101144.66;6074919;28;20035;-72
2023/04/06 13:00:50;;;;;;;9.30;4.90;;;;;;;13.63;32.36;101125.19;6075329;28;20037;-71
2023/04/06 13:03:45;;;;;;;8.07;4.23;;;;;;;13.87;32.94;101116.53;6074430;28;20033;-70
2023/04/06 13:06:42;;;;;;;11.60;4.47;;;;;;;13.51;32.89;101118.44;6075277;28;20050;-70
2023/04/06 13:09:37;;;;;;;9.77;4.20;;;;;;;14.23;32.51;101110.06;6075047;28;20042;-68
2023/04/06 13:12:33;;;;;;;8.03;4.67;;;;;;;14.51;29.83;101105.38;6074588;28;20457;-71
2023/04/06 13:15:28;;;;;;;7.47;3.93;;;;;;;14.31;30.53;101110.09;6074442;28;20022;-71
2023/04/06 13:18:23;;;;;;;8.43;4.65;;;;;;;13.97;29.58;101117.28;6074683;28;20082;-72
2023/04/06 13:21:20;;;;;;;6.83;4.13;;;;;;;13.70;29.29;101115.56;6075123;28;20095;-72
2023/04/06 13:24:15;;;;;;;8.60;4.45;;;;;;;13.55;30.58;101111.81;6073923;28;20280;-74
2023/04/06 13:27:11;;;;;;;9.73;4.47;;;;;;;13.82;31.09;101108.16;6074506;28;20486;-71
2023/04/06 13:30:07;;;;;;;9.45;4.60;;;;;;;13.62;29.72;101107.53;6074748;28;20083;-72
2023/04/06 13:33:04;;;;;;;9.70;4.18;;;;;;;13.70;29.91;101111.09;6074202;28;20490;-71
2023/04/06 13:35:59;;;;;;;7.45;3.78;;;;;;;13.82;29.84;101093.00;6073971;28;20052;-72
2023/04/06 13:38:55;;;;;;;7.35;4.18;;;;;;;14.24;29.13;101093.88;6074484;28;20029;-72